sensor_id;sensor_type;location;lat;lon;timestamp;P1;durP1;ratioP1;P2;durP2;ratioP2
74614;SDS011;63121;51.458;-0.110;2023-10-31T00:00:05;0.00;;;0.00;;
74614;SDS011;63121;51.458;-0.110;2023-10-31T00:02:31;0.00;;;0.00;;
74614;SDS011;63121;51.458;-0.110;2023-10-31T00:04:56;0.00;;;0.00;;
74614;SDS011;63121;51.458;-0.110;2023-10-31T00:07:22;0.00;;;0.00;;
74614;SDS011;63121;51.458;-0.110;2023-10-31T00:09:47;0.00;;;0.00;;
74614;SDS011;63121;51.458;-0.110;2023-10-31T00:12:13;0.00;;;0.00;;
74614;SDS011;63121;51.458;-0.110;2023-10-31T00:14:38;2.55;;;0.82;;
74614;SDS011;63121;51.458;-0.110;2023-10-31T00:17:04;0.00;;;0.00;;
74614;SDS011;63121;51.458;-0.110;2023-10-31T00:19:30;0.10;;;0.10;;
74614;SDS011;63121;51.458;-0.110;2023-10-31T00:21:55;0.00;;;0.00;;
74614;SDS011;63121;51.458;-0.110;2023-10-31T00:24:20;0.00;;;0.00;;
74614;SDS011;63121;51.458;-0.110;2023-10-31T00:26:46;0.00;;;0.00;;
74614;SDS011;63121;51.458;-0.110;2023-10-31T00:29:11;0.00;;;0.00;;
74614;SDS011;63121;51.458;-0.110;2023-10-31T00:31:36;0.00;;;0.00;;
74614;SDS011;63121;51.458;-0.110;2023-10-31T00:34:05;2.45;;;1.85;;
74614;SDS011;63121;51.458;-0.110;2023-10-31T00:36:31;0.00;;;0.00;;
74614;SDS011;63121;51.458;-0.110;2023-10-31T00:38:56;0.00;;;0.00;;
74614;SDS011;63121;51.458;-0.110;2023-10-31T00:41:22;0.00;;;0.00;;
74614;SDS011;63121;51.458;-0.110;2023-10-31T00:43:47;0.20;;;0.13;;
74614;SDS011;63121;51.458;-0.110;2023-10-31T00:46:13;0.22;;;0.10;;
74614;SDS011;63121;51.458;-0.110;2023-10-31T00:48:38;0.87;;;0.30;;
74614;SDS011;63121;51.458;-0.110;2023-10-31T00:51:03;0.27;;;0.10;;
74614;SDS011;63121;51.458;-0.110;2023-10-31T00:53:29;0.00;;;0.00;;
74614;SDS011;63121;51.458;-0.110;2023-10-31T00:55:55;0.00;;;0.00;;
74614;SDS011;63121;51.458;-0.110;2023-10-31T00:58:20;0.00;;;0.00;;
74614;SDS011;63121;51.458;-0.110;2023-10-31T01:00:46;0.35;;;0.30;;
74614;SDS011;63121;51.458;-0.110;2023-10-31T01:03:11;0.10;;;0.10;;
74614;SDS011;63121;51.458;-0.110;2023-10-31T01:05:36;1.33;;;0.53;;
74614;SDS011;63121;51.458;-0.110;2023-10-31T01:08:02;0.00;;;0.00;;
74614;SDS011;63121;51.458;-0.110;2023-10-31T01:10:27;0.00;;;0.00;;
74614;SDS011;63121;51.458;-0.110;2023-10-31T01:12:53;0.30;;;0.20;;
74614;SDS011;63121;51.458;-0.110;2023-10-31T01:15:18;0.10;;;0.10;;
74614;SDS011;63121;51.458;-0.110;2023-10-31T01:17:43;0.00;;;0.00;;
74614;SDS011;63121;51.458;-0.110;2023-10-31T01:20:09;0.00;;;0.00;;
74614;SDS011;63121;51.458;-0.110;2023-10-31T01:22:36;0.35;;;0.30;;
74614;SDS011;63121;51.458;-0.110;2023-10-31T01:25:02;0.63;;;0.63;;
74614;SDS011;63121;51.458;-0.110;2023-10-31T01:27:27;0.10;;;0.10;;
74614;SDS011;63121;51.458;-0.110;2023-10-31T01:29:52;0.00;;;0.00;;
74614;SDS011;63121;51.458;-0.110;2023-10-31T01:32:18;0.10;;;0.03;;
74614;SDS011;63121;51.458;-0.110;2023-10-31T01:34:43;0.43;;;0.30;;
74614;SDS011;63121;51.458;-0.110;2023-10-31T01:37:09;0.00;;;0.00;;
74614;SDS011;63121;51.458;-0.110;2023-10-31T01:39:35;0.10;;;0.10;;
74614;SDS011;63121;51.458;-0.110;2023-10-31T01:42:01;2.63;;;0.95;;
74614;SDS011;63121;51.458;-0.110;2023-10-31T01:44:26;0.00;;;0.00;;
74614;SDS011;63121;51.458;-0.110;2023-10-31T01:46:52;0.32;;;0.13;;
74614;SDS011;63121;51.458;-0.110;2023-10-31T01:49:17;0.00;;;0.00;;
74614;SDS011;63121;51.458;-0.110;2023-10-31T01:51:43;0.00;;;0.00;;
74614;SDS011;63121;51.458;-0.110;2023-10-31T01:54:10;0.15;;;0.08;;
74614;SDS011;63121;51.458;-0.110;2023-10-31T01:56:35;0.60;;;0.10;;
74614;SDS011;63121;51.458;-0.110;2023-10-31T01:59:01;0.10;;;0.08;;
74614;SDS011;63121;51.458;-0.110;2023-10-31T02:01:27;0.00;;;0.00;;
74614;SDS011;63121;51.458;-0.110;2023-10-31T02:03:53;0.00;;;0.00;;
74614;SDS011;63121;51.458;-0.110;2023-10-31T02:06:19;0.00;;;0.00;;
74614;SDS011;63121;51.458;-0.110;2023-10-31T02:08:46;0.00;;;0.00;;
74614;SDS011;63121;51.458;-0.110;2023-10-31T02:11:12;0.00;;;0.00;;
74614;SDS011;63121;51.458;-0.110;2023-10-31T02:13:37;0.00;;;0.00;;
74614;SDS011;63121;51.458;-0.110;2023-10-31T02:16:03;0.55;;;0.30;;
74614;SDS011;63121;51.458;-0.110;2023-10-31T02:18:29;0.43;;;0.43;;
74614;SDS011;63121;51.458;-0.110;2023-10-31T02:20:54;0.00;;;0.00;;
74614;SDS011;63121;51.458;-0.110;2023-10-31T02:23:19;0.47;;;0.23;;
74614;SDS011;63121;51.458;-0.110;2023-10-31T02:25:45;0.00;;;0.00;;
74614;SDS011;63121;51.458;-0.110;2023-10-31T02:28:10;0.35;;;0.28;;
74614;SDS011;63121;51.458;-0.110;2023-10-31T02:30:35;0.00;;;0.00;;
74614;SDS011;63121;51.458;-0.110;2023-10-31T02:33:01;0.00;;;0.00;;
74614;SDS011;63121;51.458;-0.110;2023-10-31T02:35:27;0.00;;;0.00;;
74614;SDS011;63121;51.458;-0.110;2023-10-31T02:37:52;0.38;;;0.22;;
74614;SDS011;63121;51.458;-0.110;2023-10-31T02:40:18;0.00;;;0.00;;
74614;SDS011;63121;51.458;-0.110;2023-10-31T02:42:43;0.00;;;0.00;;
74614;SDS011;63121;51.458;-0.110;2023-10-31T02:45:09;0.00;;;0.00;;
74614;SDS011;63121;51.458;-0.110;2023-10-31T02:47:35;0.00;;;0.00;;
74614;SDS011;63121;51.458;-0.110;2023-10-31T02:50:00;0.22;;;0.17;;
74614;SDS011;63121;51.458;-0.110;2023-10-31T02:52:25;0.00;;;0.00;;
74614;SDS011;63121;51.458;-0.110;2023-10-31T02:54:51;0.00;;;0.00;;
74614;SDS011;63121;51.458;-0.110;2023-10-31T02:57:16;0.00;;;0.00;;
74614;SDS011;63121;51.458;-0.110;2023-10-31T02:59:42;0.00;;;0.00;;
74614;SDS011;63121;51.458;-0.110;2023-10-31T03:02:07;0.00;;;0.00;;
74614;SDS011;63121;51.458;-0.110;2023-10-31T03:04:33;0.60;;;0.55;;
74614;SDS011;63121;51.458;-0.110;2023-10-31T03:06:58;0.00;;;0.00;;
74614;SDS011;63121;51.458;-0.110;2023-10-31T03:09:23;0.00;;;0.00;;
74614;SDS011;63121;51.458;-0.110;2023-10-31T03:11:49;0.43;;;0.20;;
74614;SDS011;63121;51.458;-0.110;2023-10-31T03:14:14;0.00;;;0.00;;
74614;SDS011;63121;51.458;-0.110;2023-10-31T03:16:40;0.00;;;0.00;;
74614;SDS011;63121;51.458;-0.110;2023-10-31T03:19:05;0.52;;;0.35;;
74614;SDS011;63121;51.458;-0.110;2023-10-31T03:21:32;0.00;;;0.00;;
74614;SDS011;63121;51.458;-0.110;2023-10-31T03:23:57;0.00;;;0.00;;
74614;SDS011;63121;51.458;-0.110;2023-10-31T03:26:23;0.22;;;0.13;;
74614;SDS011;63121;51.458;-0.110;2023-10-31T03:28:48;0.00;;;0.00;;
74614;SDS011;63121;51.458;-0.110;2023-10-31T03:31:14;0.00;;;0.00;;
74614;SDS011;63121;51.458;-0.110;2023-10-31T03:33:40;1.65;;;1.00;;
74614;SDS011;63121;51.458;-0.110;2023-10-31T03:36:06;0.63;;;0.57;;
74614;SDS011;63121;51.458;-0.110;2023-10-31T03:38:33;0.00;;;0.00;;
74614;SDS011;63121;51.458;-0.110;2023-10-31T03:40:58;0.00;;;0.00;;
74614;SDS011;63121;51.458;-0.110;2023-10-31T03:43:24;0.00;;;0.00;;
74614;SDS011;63121;51.458;-0.110;2023-10-31T03:45:49;0.00;;;0.00;;
74614;SDS011;63121;51.458;-0.110;2023-10-31T03:48:15;0.08;;;0.05;;
74614;SDS011;63121;51.458;-0.110;2023-10-31T03:50:41;0.00;;;0.00;;
74614;SDS011;63121;51.458;-0.110;2023-10-31T03:53:07;0.00;;;0.00;;
74614;SDS011;63121;51.458;-0.110;2023-10-31T03:55:32;0.00;;;0.00;;
74614;SDS011;63121;51.458;-0.110;2023-10-31T03:57:58;0.00;;;0.00;;
74614;SDS011;63121;51.458;-0.110;2023-10-31T04:00:23;0.00;;;0.00;;
74614;SDS011;63121;51.458;-0.110;2023-10-31T04:02:49;0.00;;;0.00;;
74614;SDS011;63121;51.458;-0.110;2023-10-31T04:05:14;0.00;;;0.00;;
74614;SDS011;63121;51.458;-0.110;2023-10-31T04:07:40;0.00;;;0.00;;
74614;SDS011;63121;51.458;-0.110;2023-10-31T04:10:05;0.50;;;0.50;;
74614;SDS011;63121;51.458;-0.110;2023-10-31T04:12:31;0.13;;;0.13;;
74614;SDS011;63121;51.458;-0.110;2023-10-31T04:14:57;0.00;;;0.00;;
74614;SDS011;63121;51.458;-0.110;2023-10-31T04:17:22;0.00;;;0.00;;
74614;SDS011;63121;51.458;-0.110;2023-10-31T04:19:47;0.17;;;0.10;;
74614;SDS011;63121;51.458;-0.110;2023-10-31T04:22:13;0.00;;;0.00;;
74614;SDS011;63121;51.458;-0.110;2023-10-31T04:24:39;0.00;;;0.00;;
74614;SDS011;63121;51.458;-0.110;2023-10-31T04:27:04;0.47;;;0.30;;
74614;SDS011;63121;51.458;-0.110;2023-10-31T04:29:29;0.00;;;0.00;;
74614;SDS011;63121;51.458;-0.110;2023-10-31T04:31:55;0.00;;;0.00;;
74614;SDS011;63121;51.458;-0.110;2023-10-31T04:34:20;0.00;;;0.00;;
74614;SDS011;63121;51.458;-0.110;2023-10-31T04:36:45;0.00;;;0.00;;
74614;SDS011;63121;51.458;-0.110;2023-10-31T04:39:11;0.67;;;0.63;;
74614;SDS011;63121;51.458;-0.110;2023-10-31T04:41:36;0.10;;;0.10;;
74614;SDS011;63121;51.458;-0.110;2023-10-31T04:44:02;0.03;;;0.03;;
74614;SDS011;63121;51.458;-0.110;2023-10-31T04:46:28;0.00;;;0.00;;
74614;SDS011;63121;51.458;-0.110;2023-10-31T04:48:53;0.00;;;0.00;;
74614;SDS011;63121;51.458;-0.110;2023-10-31T04:51:19;1.80;;;0.77;;
74614;SDS011;63121;51.458;-0.110;2023-10-31T04:53:44;0.00;;;0.00;;
74614;SDS011;63121;51.458;-0.110;2023-10-31T04:56:13;0.00;;;0.00;;
74614;SDS011;63121;51.458;-0.110;2023-10-31T04:58:40;0.00;;;0.00;;
74614;SDS011;63121;51.458;-0.110;2023-10-31T05:01:09;0.00;;;0.00;;
74614;SDS011;63121;51.458;-0.110;2023-10-31T05:03:38;0.35;;;0.30;;
74614;SDS011;63121;51.458;-0.110;2023-10-31T05:06:04;0.00;;;0.00;;
74614;SDS011;63121;51.458;-0.110;2023-10-31T05:08:30;0.75;;;0.65;;
74614;SDS011;63121;51.458;-0.110;2023-10-31T05:10:57;0.13;;;0.10;;
74614;SDS011;63121;51.458;-0.110;2023-10-31T05:15:48;0.57;;;0.43;;
74614;SDS011;63121;51.458;-0.110;2023-10-31T05:18:14;1.13;;;1.10;;
74614;SDS011;63121;51.458;-0.110;2023-10-31T05:20:40;0.00;;;0.00;;
74614;SDS011;63121;51.458;-0.110;2023-10-31T05:23:05;0.32;;;0.22;;
74614;SDS011;63121;51.458;-0.110;2023-10-31T05:25:30;0.00;;;0.00;;
74614;SDS011;63121;51.458;-0.110;2023-10-31T05:27:56;0.40;;;0.30;;
74614;SDS011;63121;51.458;-0.110;2023-10-31T05:30:21;0.00;;;0.00;;
74614;SDS011;63121;51.458;-0.110;2023-10-31T05:32:47;0.00;;;0.00;;
74614;SDS011;63121;51.458;-0.110;2023-10-31T05:35:12;0.00;;;0.00;;
74614;SDS011;63121;51.458;-0.110;2023-10-31T05:37:38;0.00;;;0.00;;
74614;SDS011;63121;51.458;-0.110;2023-10-31T05:40:03;2.50;;;2.30;;
74614;SDS011;63121;51.458;-0.110;2023-10-31T05:42:29;0.00;;;0.00;;
74614;SDS011;63121;51.458;-0.110;2023-10-31T05:44:55;0.00;;;0.00;;
74614;SDS011;63121;51.458;-0.110;2023-10-31T05:47:21;0.00;;;0.00;;
74614;SDS011;63121;51.458;-0.110;2023-10-31T05:49:47;0.00;;;0.00;;
74614;SDS011;63121;51.458;-0.110;2023-10-31T05:52:13;0.20;;;0.13;;
74614;SDS011;63121;51.458;-0.110;2023-10-31T05:54:38;0.20;;;0.10;;
74614;SDS011;63121;51.458;-0.110;2023-10-31T05:57:03;0.00;;;0.00;;
74614;SDS011;63121;51.458;-0.110;2023-10-31T05:59:29;0.28;;;0.15;;
74614;SDS011;63121;51.458;-0.110;2023-10-31T06:01:54;0.00;;;0.00;;
74614;SDS011;63121;51.458;-0.110;2023-10-31T06:04:20;0.30;;;0.15;;
74614;SDS011;63121;51.458;-0.110;2023-10-31T06:06:45;0.00;;;0.00;;
74614;SDS011;63121;51.458;-0.110;2023-10-31T06:09:10;0.00;;;0.00;;
74614;SDS011;63121;51.458;-0.110;2023-10-31T06:11:36;0.10;;;0.07;;
74614;SDS011;63121;51.458;-0.110;2023-10-31T06:14:01;0.00;;;0.00;;
74614;SDS011;63121;51.458;-0.110;2023-10-31T06:16:26;0.00;;;0.00;;
74614;SDS011;63121;51.458;-0.110;2023-10-31T06:18:52;0.00;;;0.00;;
74614;SDS011;63121;51.458;-0.110;2023-10-31T06:21:17;0.03;;;0.03;;
74614;SDS011;63121;51.458;-0.110;2023-10-31T06:23:43;0.00;;;0.00;;
74614;SDS011;63121;51.458;-0.110;2023-10-31T06:26:10;0.00;;;0.00;;
74614;SDS011;63121;51.458;-0.110;2023-10-31T06:28:36;0.00;;;0.00;;
74614;SDS011;63121;51.458;-0.110;2023-10-31T06:31:02;0.00;;;0.00;;
74614;SDS011;63121;51.458;-0.110;2023-10-31T06:33:28;0.00;;;0.00;;
74614;SDS011;63121;51.458;-0.110;2023-10-31T06:35:53;0.00;;;0.00;;
74614;SDS011;63121;51.458;-0.110;2023-10-31T06:38:19;0.00;;;0.00;;
74614;SDS011;63121;51.458;-0.110;2023-10-31T06:40:45;0.00;;;0.00;;
74614;SDS011;63121;51.458;-0.110;2023-10-31T06:43:10;0.00;;;0.00;;
74614;SDS011;63121;51.458;-0.110;2023-10-31T06:45:36;0.00;;;0.00;;
74614;SDS011;63121;51.458;-0.110;2023-10-31T06:48:01;0.05;;;0.05;;
74614;SDS011;63121;51.458;-0.110;2023-10-31T06:50:27;0.00;;;0.00;;
74614;SDS011;63121;51.458;-0.110;2023-10-31T06:52:53;0.00;;;0.00;;
74614;SDS011;63121;51.458;-0.110;2023-10-31T06:55:19;0.00;;;0.00;;
74614;SDS011;63121;51.458;-0.110;2023-10-31T06:57:44;0.00;;;0.00;;
74614;SDS011;63121;51.458;-0.110;2023-10-31T07:00:10;0.00;;;0.00;;
74614;SDS011;63121;51.458;-0.110;2023-10-31T07:02:36;0.00;;;0.00;;
74614;SDS011;63121;51.458;-0.110;2023-10-31T07:05:02;0.00;;;0.00;;
74614;SDS011;63121;51.458;-0.110;2023-10-31T07:07:28;0.75;;;0.60;;
74614;SDS011;63121;51.458;-0.110;2023-10-31T07:09:54;0.00;;;0.00;;
74614;SDS011;63121;51.458;-0.110;2023-10-31T07:12:19;0.00;;;0.00;;
74614;SDS011;63121;51.458;-0.110;2023-10-31T07:14:44;0.00;;;0.00;;
74614;SDS011;63121;51.458;-0.110;2023-10-31T07:17:10;0.00;;;0.00;;
74614;SDS011;63121;51.458;-0.110;2023-10-31T07:19:35;0.00;;;0.00;;
74614;SDS011;63121;51.458;-0.110;2023-10-31T07:22:01;0.00;;;0.00;;
74614;SDS011;63121;51.458;-0.110;2023-10-31T07:24:27;3.33;;;0.57;;
74614;SDS011;63121;51.458;-0.110;2023-10-31T07:26:53;0.00;;;0.00;;
74614;SDS011;63121;51.458;-0.110;2023-10-31T07:29:19;0.00;;;0.00;;
74614;SDS011;63121;51.458;-0.110;2023-10-31T07:31:44;0.00;;;0.00;;
74614;SDS011;63121;51.458;-0.110;2023-10-31T07:34:09;0.00;;;0.00;;
74614;SDS011;63121;51.458;-0.110;2023-10-31T07:36:36;0.00;;;0.00;;
74614;SDS011;63121;51.458;-0.110;2023-10-31T07:39:02;0.50;;;0.40;;
74614;SDS011;63121;51.458;-0.110;2023-10-31T07:41:28;0.00;;;0.00;;
74614;SDS011;63121;51.458;-0.110;2023-10-31T07:43:54;0.00;;;0.00;;
74614;SDS011;63121;51.458;-0.110;2023-10-31T07:46:20;0.00;;;0.00;;
74614;SDS011;63121;51.458;-0.110;2023-10-31T07:48:45;0.90;;;0.90;;
74614;SDS011;63121;51.458;-0.110;2023-10-31T07:51:11;0.00;;;0.00;;
74614;SDS011;63121;51.458;-0.110;2023-10-31T07:53:36;0.00;;;0.00;;
74614;SDS011;63121;51.458;-0.110;2023-10-31T07:56:01;0.00;;;0.00;;
74614;SDS011;63121;51.458;-0.110;2023-10-31T07:58:27;0.00;;;0.00;;
74614;SDS011;63121;51.458;-0.110;2023-10-31T08:00:52;0.00;;;0.00;;
74614;SDS011;63121;51.458;-0.110;2023-10-31T08:03:17;0.00;;;0.00;;
74614;SDS011;63121;51.458;-0.110;2023-10-31T08:05:43;0.00;;;0.00;;
74614;SDS011;63121;51.458;-0.110;2023-10-31T08:08:08;0.00;;;0.00;;
74614;SDS011;63121;51.458;-0.110;2023-10-31T08:10:34;0.00;;;0.00;;
74614;SDS011;63121;51.458;-0.110;2023-10-31T08:12:59;0.00;;;0.00;;
74614;SDS011;63121;51.458;-0.110;2023-10-31T08:15:25;0.00;;;0.00;;
74614;SDS011;63121;51.458;-0.110;2023-10-31T08:17:50;0.00;;;0.00;;
74614;SDS011;63121;51.458;-0.110;2023-10-31T08:20:16;0.00;;;0.00;;
74614;SDS011;63121;51.458;-0.110;2023-10-31T08:22:41;0.00;;;0.00;;
74614;SDS011;63121;51.458;-0.110;2023-10-31T08:25:09;0.05;;;0.03;;
74614;SDS011;63121;51.458;-0.110;2023-10-31T08:27:35;0.00;;;0.00;;
74614;SDS011;63121;51.458;-0.110;2023-10-31T08:30:00;0.00;;;0.00;;
74614;SDS011;63121;51.458;-0.110;2023-10-31T08:32:27;0.00;;;0.00;;
74614;SDS011;63121;51.458;-0.110;2023-10-31T08:34:52;0.00;;;0.00;;
74614;SDS011;63121;51.458;-0.110;2023-10-31T08:37:19;0.30;;;0.20;;
74614;SDS011;63121;51.458;-0.110;2023-10-31T08:39:44;0.00;;;0.00;;
74614;SDS011;63121;51.458;-0.110;2023-10-31T08:42:09;0.00;;;0.00;;
74614;SDS011;63121;51.458;-0.110;2023-10-31T08:44:35;0.00;;;0.00;;
74614;SDS011;63121;51.458;-0.110;2023-10-31T08:47:02;0.03;;;0.03;;
74614;SDS011;63121;51.458;-0.110;2023-10-31T08:49:28;0.17;;;0.10;;
74614;SDS011;63121;51.458;-0.110;2023-10-31T08:51:53;0.00;;;0.00;;
74614;SDS011;63121;51.458;-0.110;2023-10-31T08:54:18;0.00;;;0.00;;
74614;SDS011;63121;51.458;-0.110;2023-10-31T08:56:44;0.00;;;0.00;;
74614;SDS011;63121;51.458;-0.110;2023-10-31T08:59:09;0.10;;;0.10;;
74614;SDS011;63121;51.458;-0.110;2023-10-31T09:01:35;0.00;;;0.00;;
74614;SDS011;63121;51.458;-0.110;2023-10-31T09:04:00;0.00;;;0.00;;
74614;SDS011;63121;51.458;-0.110;2023-10-31T09:06:25;0.00;;;0.00;;
74614;SDS011;63121;51.458;-0.110;2023-10-31T09:08:51;0.00;;;0.00;;
74614;SDS011;63121;51.458;-0.110;2023-10-31T09:11:16;0.00;;;0.00;;
74614;SDS011;63121;51.458;-0.110;2023-10-31T09:13:42;0.00;;;0.00;;
74614;SDS011;63121;51.458;-0.110;2023-10-31T09:16:07;0.00;;;0.00;;
74614;SDS011;63121;51.458;-0.110;2023-10-31T09:18:33;0.00;;;0.00;;
74614;SDS011;63121;51.458;-0.110;2023-10-31T09:20:59;0.00;;;0.00;;
74614;SDS011;63121;51.458;-0.110;2023-10-31T09:23:25;0.00;;;0.00;;
74614;SDS011;63121;51.458;-0.110;2023-10-31T09:25:50;0.00;;;0.00;;
74614;SDS011;63121;51.458;-0.110;2023-10-31T09:28:15;0.00;;;0.00;;
74614;SDS011;63121;51.458;-0.110;2023-10-31T09:30:42;0.00;;;0.00;;
74614;SDS011;63121;51.458;-0.110;2023-10-31T09:33:07;0.30;;;0.10;;
74614;SDS011;63121;51.458;-0.110;2023-10-31T09:35:33;0.00;;;0.00;;
74614;SDS011;63121;51.458;-0.110;2023-10-31T09:37:58;0.00;;;0.00;;
74614;SDS011;63121;51.458;-0.110;2023-10-31T09:40:24;0.20;;;0.10;;
74614;SDS011;63121;51.458;-0.110;2023-10-31T09:42:49;0.40;;;0.20;;
74614;SDS011;63121;51.458;-0.110;2023-10-31T09:45:15;0.00;;;0.00;;
74614;SDS011;63121;51.458;-0.110;2023-10-31T09:47:41;0.00;;;0.00;;
74614;SDS011;63121;51.458;-0.110;2023-10-31T09:50:09;0.00;;;0.00;;
74614;SDS011;63121;51.458;-0.110;2023-10-31T09:52:35;0.28;;;0.20;;
74614;SDS011;63121;51.458;-0.110;2023-10-31T09:55:01;0.00;;;0.00;;
74614;SDS011;63121;51.458;-0.110;2023-10-31T09:57:27;0.00;;;0.00;;
74614;SDS011;63121;51.458;-0.110;2023-10-31T09:59:53;0.00;;;0.00;;
74614;SDS011;63121;51.458;-0.110;2023-10-31T10:02:19;0.00;;;0.00;;
74614;SDS011;63121;51.458;-0.110;2023-10-31T10:04:44;0.00;;;0.00;;
74614;SDS011;63121;51.458;-0.110;2023-10-31T10:07:12;0.05;;;0.05;;
74614;SDS011;63121;51.458;-0.110;2023-10-31T10:09:40;0.00;;;0.00;;
74614;SDS011;63121;51.458;-0.110;2023-10-31T10:12:06;0.00;;;0.00;;
74614;SDS011;63121;51.458;-0.110;2023-10-31T10:14:32;0.00;;;0.00;;
74614;SDS011;63121;51.458;-0.110;2023-10-31T10:16:57;0.00;;;0.00;;
74614;SDS011;63121;51.458;-0.110;2023-10-31T10:19:23;0.00;;;0.00;;
74614;SDS011;63121;51.458;-0.110;2023-10-31T10:21:52;0.00;;;0.00;;
74614;SDS011;63121;51.458;-0.110;2023-10-31T10:24:19;0.00;;;0.00;;
74614;SDS011;63121;51.458;-0.110;2023-10-31T10:26:45;0.00;;;0.00;;
74614;SDS011;63121;51.458;-0.110;2023-10-31T10:29:12;0.00;;;0.00;;
74614;SDS011;63121;51.458;-0.110;2023-10-31T10:31:37;0.00;;;0.00;;
74614;SDS011;63121;51.458;-0.110;2023-10-31T10:34:03;0.00;;;0.00;;
74614;SDS011;63121;51.458;-0.110;2023-10-31T10:36:28;4.55;;;1.00;;
74614;SDS011;63121;51.458;-0.110;2023-10-31T10:38:56;3.67;;;1.00;;
74614;SDS011;63121;51.458;-0.110;2023-10-31T10:41:24;4.85;;;1.00;;
74614;SDS011;63121;51.458;-0.110;2023-10-31T10:43:52;7.95;;;1.33;;
74614;SDS011;63121;51.458;-0.110;2023-10-31T10:46:25;5.03;;;1.00;;
74614;SDS011;63121;51.458;-0.110;2023-10-31T10:48:55;15.60;;;3.10;;
74614;SDS011;63121;51.458;-0.110;2023-10-31T10:51:25;5.32;;;1.35;;
74614;SDS011;63121;51.458;-0.110;2023-10-31T10:53:57;4.95;;;1.00;;
74614;SDS011;63121;51.458;-0.110;2023-10-31T10:56:39;2.97;;;0.90;;
74614;SDS011;63121;51.458;-0.110;2023-10-31T10:59:15;3.13;;;0.95;;
74614;SDS011;63121;51.458;-0.110;2023-10-31T11:01:45;3.30;;;0.98;;
74614;SDS011;63121;51.458;-0.110;2023-10-31T11:04:13;4.00;;;0.88;;
74614;SDS011;63121;51.458;-0.110;2023-10-31T11:06:40;3.38;;;0.90;;
74614;SDS011;63121;51.458;-0.110;2023-10-31T11:09:06;2.28;;;0.80;;
74614;SDS011;63121;51.458;-0.110;2023-10-31T11:11:33;6.13;;;1.17;;
74614;SDS011;63121;51.458;-0.110;2023-10-31T11:13:58;5.50;;;1.10;;
74614;SDS011;63121;51.458;-0.110;2023-10-31T11:16:29;5.50;;;1.25;;
74614;SDS011;63121;51.458;-0.110;2023-10-31T11:18:57;5.70;;;1.00;;
74614;SDS011;63121;51.458;-0.110;2023-10-31T11:21:23;4.43;;;0.90;;
74614;SDS011;63121;51.458;-0.110;2023-10-31T11:23:58;3.42;;;0.90;;
74614;SDS011;63121;51.458;-0.110;2023-10-31T11:26:27;3.88;;;0.80;;
74614;SDS011;63121;51.458;-0.110;2023-10-31T11:29:04;8.77;;;1.30;;
74614;SDS011;63121;51.458;-0.110;2023-10-31T11:31:33;4.95;;;1.15;;
74614;SDS011;63121;51.458;-0.110;2023-10-31T11:34:02;3.03;;;1.13;;
74614;SDS011;63121;51.458;-0.110;2023-10-31T11:36:30;3.78;;;0.82;;
74614;SDS011;63121;51.458;-0.110;2023-10-31T11:39:19;7.93;;;1.15;;
74614;SDS011;63121;51.458;-0.110;2023-10-31T11:41:49;3.13;;;0.80;;
74614;SDS011;63121;51.458;-0.110;2023-10-31T11:44:15;2.67;;;1.05;;
74614;SDS011;63121;51.458;-0.110;2023-10-31T11:46:41;4.45;;;1.10;;
74614;SDS011;63121;51.458;-0.110;2023-10-31T11:49:07;6.63;;;1.02;;
74614;SDS011;63121;51.458;-0.110;2023-10-31T11:51:32;3.60;;;1.08;;
74614;SDS011;63121;51.458;-0.110;2023-10-31T11:53:59;7.00;;;1.10;;
74614;SDS011;63121;51.458;-0.110;2023-10-31T11:56:26;4.25;;;1.00;;
74614;SDS011;63121;51.458;-0.110;2023-10-31T11:58:59;6.78;;;1.10;;
74614;SDS011;63121;51.458;-0.110;2023-10-31T12:01:26;5.72;;;1.27;;
74614;SDS011;63121;51.458;-0.110;2023-10-31T12:03:51;6.38;;;1.20;;
74614;SDS011;63121;51.458;-0.110;2023-10-31T12:06:17;4.47;;;0.98;;
74614;SDS011;63121;51.458;-0.110;2023-10-31T12:08:45;4.95;;;1.17;;
74614;SDS011;63121;51.458;-0.110;2023-10-31T12:11:13;6.60;;;1.10;;
74614;SDS011;63121;51.458;-0.110;2023-10-31T12:16:22;4.10;;;1.00;;
74614;SDS011;63121;51.458;-0.110;2023-10-31T12:18:53;5.53;;;1.23;;
74614;SDS011;63121;51.458;-0.110;2023-10-31T12:21:39;7.85;;;1.27;;
74614;SDS011;63121;51.458;-0.110;2023-10-31T12:24:11;8.38;;;1.27;;
74614;SDS011;63121;51.458;-0.110;2023-10-31T12:26:38;4.35;;;1.30;;
74614;SDS011;63121;51.458;-0.110;2023-10-31T12:29:07;5.28;;;1.15;;
74614;SDS011;63121;51.458;-0.110;2023-10-31T12:31:47;6.00;;;1.30;;
74614;SDS011;63121;51.458;-0.110;2023-10-31T12:34:14;3.95;;;1.10;;
74614;SDS011;63121;51.458;-0.110;2023-10-31T12:36:43;1.70;;;0.77;;
74614;SDS011;63121;51.458;-0.110;2023-10-31T12:39:10;3.63;;;1.10;;
74614;SDS011;63121;51.458;-0.110;2023-10-31T12:41:37;4.10;;;0.95;;
74614;SDS011;63121;51.458;-0.110;2023-10-31T12:44:03;2.63;;;0.90;;
74614;SDS011;63121;51.458;-0.110;2023-10-31T12:46:30;3.85;;;1.00;;
74614;SDS011;63121;51.458;-0.110;2023-10-31T12:48:56;0.90;;;0.40;;
74614;SDS011;63121;51.458;-0.110;2023-10-31T12:51:22;2.35;;;0.47;;
74614;SDS011;63121;51.458;-0.110;2023-10-31T12:53:51;5.38;;;0.98;;
74614;SDS011;63121;51.458;-0.110;2023-10-31T12:59:06;2.65;;;0.60;;
74614;SDS011;63121;51.458;-0.110;2023-10-31T13:01:36;1.48;;;0.63;;
74614;SDS011;63121;51.458;-0.110;2023-10-31T13:04:04;0.93;;;0.55;;
74614;SDS011;63121;51.458;-0.110;2023-10-31T13:06:30;2.13;;;0.70;;
74614;SDS011;63121;51.458;-0.110;2023-10-31T13:08:56;1.10;;;0.40;;
74614;SDS011;63121;51.458;-0.110;2023-10-31T13:11:31;2.50;;;0.75;;
74614;SDS011;63121;51.458;-0.110;2023-10-31T13:13:57;1.40;;;0.38;;
74614;SDS011;63121;51.458;-0.110;2023-10-31T13:16:23;2.05;;;0.70;;
74614;SDS011;63121;51.458;-0.110;2023-10-31T13:18:51;2.17;;;0.80;;
74614;SDS011;63121;51.458;-0.110;2023-10-31T13:21:17;1.50;;;0.70;;
74614;SDS011;63121;51.458;-0.110;2023-10-31T13:23:43;1.77;;;0.70;;
74614;SDS011;63121;51.458;-0.110;2023-10-31T13:26:13;1.70;;;0.40;;
74614;SDS011;63121;51.458;-0.110;2023-10-31T13:28:38;4.65;;;0.95;;
74614;SDS011;63121;51.458;-0.110;2023-10-31T13:31:05;0.57;;;0.47;;
74614;SDS011;63121;51.458;-0.110;2023-10-31T13:33:31;1.08;;;0.70;;
74614;SDS011;63121;51.458;-0.110;2023-10-31T13:35:57;0.93;;;0.50;;
74614;SDS011;63121;51.458;-0.110;2023-10-31T13:38:22;5.10;;;0.80;;
74614;SDS011;63121;51.458;-0.110;2023-10-31T13:40:48;4.07;;;0.70;;
74614;SDS011;63121;51.458;-0.110;2023-10-31T13:43:13;2.33;;;0.80;;
74614;SDS011;63121;51.458;-0.110;2023-10-31T13:45:38;1.10;;;0.80;;
74614;SDS011;63121;51.458;-0.110;2023-10-31T13:48:04;2.43;;;0.60;;
74614;SDS011;63121;51.458;-0.110;2023-10-31T13:50:29;2.42;;;0.60;;
74614;SDS011;63121;51.458;-0.110;2023-10-31T13:52:55;1.13;;;0.60;;
74614;SDS011;63121;51.458;-0.110;2023-10-31T13:55:21;0.63;;;0.55;;
74614;SDS011;63121;51.458;-0.110;2023-10-31T13:57:48;3.70;;;1.00;;
74614;SDS011;63121;51.458;-0.110;2023-10-31T14:00:14;2.10;;;0.60;;
74614;SDS011;63121;51.458;-0.110;2023-10-31T14:02:39;0.95;;;0.47;;
74614;SDS011;63121;51.458;-0.110;2023-10-31T14:05:05;3.08;;;0.70;;
74614;SDS011;63121;51.458;-0.110;2023-10-31T14:07:30;2.95;;;0.68;;
74614;SDS011;63121;51.458;-0.110;2023-10-31T14:09:56;2.20;;;0.80;;
74614;SDS011;63121;51.458;-0.110;2023-10-31T14:12:22;2.92;;;0.93;;
74614;SDS011;63121;51.458;-0.110;2023-10-31T14:14:48;2.90;;;0.80;;
74614;SDS011;63121;51.458;-0.110;2023-10-31T14:17:14;1.77;;;0.60;;
74614;SDS011;63121;51.458;-0.110;2023-10-31T14:19:41;3.42;;;1.05;;
74614;SDS011;63121;51.458;-0.110;2023-10-31T14:22:07;3.47;;;0.82;;
74614;SDS011;63121;51.458;-0.110;2023-10-31T14:24:33;1.40;;;0.60;;
74614;SDS011;63121;51.458;-0.110;2023-10-31T14:26:59;3.58;;;1.20;;
74614;SDS011;63121;51.458;-0.110;2023-10-31T14:29:25;3.03;;;0.88;;
74614;SDS011;63121;51.458;-0.110;2023-10-31T14:31:50;3.17;;;0.90;;
74614;SDS011;63121;51.458;-0.110;2023-10-31T14:34:16;4.70;;;1.00;;